createdAt,value
2019-03-30T00:01:24.851Z,99.90
2019-03-30T00:03:55.795Z,99.90
2019-03-30T00:06:27.834Z,99.90
2019-03-30T00:08:58.687Z,99.90
2019-03-30T00:11:29.586Z,99.90
2019-03-30T00:14:00.364Z,99.90
2019-03-30T00:16:32.518Z,99.90
2019-03-30T00:19:03.511Z,99.90
2019-03-30T00:21:34.386Z,99.90
2019-03-30T00:24:05.358Z,99.90
2019-03-30T00:26:37.409Z,99.90
2019-03-30T00:29:08.312Z,99.90
2019-03-30T00:31:39.262Z,99.90
2019-03-30T00:34:10.325Z,99.90
2019-03-30T00:36:42.297Z,99.90
2019-03-30T00:39:13.188Z,99.90
2019-03-30T00:41:43.923Z,99.90
2019-03-30T00:44:14.704Z,99.90
2019-03-30T00:46:45.630Z,99.90
2019-03-30T00:49:16.309Z,99.90
2019-03-30T00:51:47.199Z,99.90
2019-03-30T00:54:17.992Z,99.90
2019-03-30T00:56:50.169Z,99.90
2019-03-30T00:59:21.053Z,99.90
2019-03-30T01:01:51.786Z,99.90
2019-03-30T01:04:22.599Z,99.90
2019-03-30T01:06:53.535Z,99.90
2019-03-30T01:09:24.371Z,99.90
2019-03-30T01:11:55.307Z,99.90
2019-03-30T01:14:26.122Z,99.90
2019-03-30T01:16:58.274Z,99.90
2019-03-30T01:19:29.107Z,99.90
2019-03-30T01:21:59.944Z,99.90
2019-03-30T01:24:30.679Z,99.90
2019-03-30T01:27:02.699Z,99.90
2019-03-30T01:29:33.472Z,99.90
2019-03-30T01:32:04.345Z,99.90
2019-03-30T01:34:35.144Z,99.90
2019-03-30T01:37:06.978Z,99.90
2019-03-30T01:39:37.872Z,99.90
2019-03-30T01:42:08.809Z,99.90
2019-03-30T01:44:39.715Z,99.90
2019-03-30T01:47:11.807Z,99.90
2019-03-30T01:49:42.748Z,99.90
2019-03-30T01:52:13.489Z,99.90
2019-03-30T01:54:44.418Z,99.90
2019-03-30T01:57:16.688Z,99.90
2019-03-30T01:59:47.621Z,99.90
2019-03-30T02:02:18.423Z,99.90
2019-03-30T02:04:49.395Z,99.90
2019-03-30T02:07:21.511Z,99.90
2019-03-30T02:09:52.377Z,99.90
2019-03-30T02:12:23.111Z,99.90
2019-03-30T02:14:54.068Z,99.90
2019-03-30T02:17:26.129Z,99.90
2019-03-30T02:19:56.874Z,99.90
2019-03-30T02:22:27.663Z,99.90
2019-03-30T02:24:58.515Z,99.90
2019-03-30T02:27:30.732Z,99.90
2019-03-30T02:30:01.502Z,99.90
2019-03-30T02:32:33.087Z,99.90
2019-03-30T02:35:05.309Z,99.90
2019-03-30T02:37:37.468Z,99.90
2019-03-30T02:40:08.403Z,99.90
2019-03-30T02:42:39.343Z,99.90
2019-03-30T02:45:10.311Z,99.90
2019-03-30T02:47:41.277Z,99.90
2019-03-30T02:50:12.160Z,99.90
2019-03-30T02:52:42.929Z,99.90
2019-03-30T02:55:13.881Z,99.90
2019-03-30T02:57:45.744Z,99.90
2019-03-30T03:00:17.881Z,99.90
2019-03-30T03:02:48.749Z,99.90
2019-03-30T03:05:19.749Z,99.90
2019-03-30T03:07:51.485Z,99.90
2019-03-30T03:10:23.159Z,99.90
2019-03-30T03:12:54.009Z,99.90
2019-03-30T03:15:25.038Z,99.90
2019-03-30T03:17:57.045Z,99.90
2019-03-30T03:20:27.803Z,99.90
2019-03-30T03:22:58.665Z,99.90
2019-03-30T03:25:29.607Z,99.90
2019-03-30T03:28:01.972Z,99.90
2019-03-30T03:30:32.945Z,99.90
2019-03-30T03:33:03.787Z,99.90
2019-03-30T03:35:34.823Z,99.90
2019-03-30T03:38:05.533Z,99.90
2019-03-30T03:40:36.452Z,99.90
2019-03-30T03:43:07.227Z,99.90
2019-03-30T03:45:38.156Z,99.90
2019-03-30T03:48:08.843Z,99.90
2019-03-30T03:50:44.205Z,99.90
2019-03-30T03:53:16.155Z,99.90
2019-03-30T03:55:47.850Z,99.90
2019-03-30T03:58:22.706Z,99.90
2019-03-30T04:00:55.481Z,99.90
2019-03-30T04:03:28.635Z,99.90
2019-03-30T04:06:01.531Z,99.90
2019-03-30T04:08:34.199Z,99.90
2019-03-30T04:11:05.850Z,99.90
2019-03-30T04:13:38.531Z,99.90
2019-03-30T04:16:09.390Z,99.90
2019-03-30T04:18:42.472Z,99.90
2019-03-30T04:21:13.264Z,99.90
2019-03-30T04:23:44.106Z,99.90
2019-03-30T04:26:14.868Z,99.90
2019-03-30T04:28:46.714Z,99.90
2019-03-30T04:31:17.461Z,99.90
2019-03-30T04:33:48.271Z,99.90
2019-03-30T04:36:18.964Z,99.90
2019-03-30T04:38:50.965Z,99.90
2019-03-30T04:41:21.839Z,99.90
2019-03-30T04:43:52.727Z,99.90
2019-03-30T04:46:23.597Z,99.90
2019-03-30T04:48:55.550Z,99.90
2019-03-30T04:51:26.545Z,99.90
2019-03-30T04:53:57.428Z,99.90
2019-03-30T04:56:28.166Z,99.90
2019-03-30T04:59:00.421Z,99.90
2019-03-30T05:01:31.236Z,99.90
2019-03-30T05:04:01.970Z,99.90
2019-03-30T05:06:32.838Z,99.90
2019-03-30T05:09:06.124Z,99.90
2019-03-30T05:11:36.859Z,99.90
2019-03-30T05:14:07.871Z,99.90
2019-03-30T05:16:38.835Z,99.90
2019-03-30T05:19:09.607Z,99.90
2019-03-30T05:21:40.478Z,99.90
2019-03-30T05:24:11.254Z,99.90
2019-03-30T05:26:42.075Z,99.90
2019-03-30T05:29:12.961Z,99.90
2019-03-30T05:31:43.950Z,99.90
2019-03-30T05:34:14.785Z,99.90
2019-03-30T05:36:45.624Z,99.90
2019-03-30T05:39:17.854Z,99.90
2019-03-30T05:41:48.721Z,99.90
2019-03-30T05:44:19.557Z,99.90
2019-03-30T05:46:50.429Z,99.90
2019-03-30T05:49:22.332Z,99.90
2019-03-30T05:51:54.287Z,99.90
2019-03-30T05:54:25.093Z,99.90
2019-03-30T05:56:55.985Z,99.90
2019-03-30T05:59:27.812Z,99.90
2019-03-30T06:01:58.643Z,99.90
2019-03-30T06:04:29.479Z,99.90
2019-03-30T06:07:00.551Z,99.90
2019-03-30T06:09:31.489Z,99.90
2019-03-30T06:12:02.291Z,99.90
2019-03-30T06:14:33.146Z,99.90
2019-03-30T06:17:05.198Z,99.90
2019-03-30T06:19:36.119Z,99.90
2019-03-30T06:22:06.971Z,99.90
2019-03-30T06:24:37.827Z,99.90
2019-03-30T06:27:09.811Z,99.90
2019-03-30T06:29:40.796Z,99.90
2019-03-30T06:32:11.772Z,99.90
2019-03-30T06:34:42.488Z,99.90
2019-03-30T06:37:14.438Z,99.90
2019-03-30T06:39:45.267Z,99.90
2019-03-30T06:42:16.017Z,99.90
2019-03-30T06:44:46.866Z,99.90
2019-03-30T06:47:18.860Z,99.90
2019-03-30T06:49:49.732Z,99.90
2019-03-30T06:52:21.726Z,99.90
2019-03-30T06:54:52.395Z,99.90
2019-03-30T06:57:26.600Z,99.90
2019-03-30T06:59:57.511Z,99.90
2019-03-30T07:02:28.448Z,99.90
2019-03-30T07:04:59.432Z,99.90
2019-03-30T07:07:32.637Z,99.90
2019-03-30T07:10:05.078Z,99.90
2019-03-30T07:12:40.668Z,99.90
2019-03-30T07:15:11.735Z,99.90
2019-03-30T07:17:47.708Z,99.90
2019-03-30T07:20:29.487Z,99.90
2019-03-30T07:23:11.293Z,99.90
2019-03-30T07:25:32.859Z,99.90
2019-03-30T07:28:05.337Z,99.90
2019-03-30T07:30:36.176Z,99.90
2019-03-30T07:33:07.044Z,99.90
2019-03-30T07:35:37.816Z,99.90
2019-03-30T07:38:09.800Z,99.90
2019-03-30T07:40:40.672Z,99.90
2019-03-30T07:43:11.515Z,99.90
2019-03-30T07:45:42.416Z,99.90
2019-03-30T07:48:13.382Z,99.90
2019-03-30T07:50:44.278Z,99.90
2019-03-30T07:53:26.305Z,99.90
2019-03-30T07:55:49.680Z,99.90
2019-03-30T07:58:20.580Z,99.90
2019-03-30T08:00:51.419Z,99.90
2019-03-30T08:03:23.550Z,99.90
2019-03-30T08:05:54.624Z,99.90
2019-03-30T08:08:25.568Z,99.90
2019-03-30T08:10:56.528Z,99.90
2019-03-30T08:13:28.694Z,99.90
2019-03-30T08:15:59.533Z,99.90
2019-03-30T08:18:30.307Z,99.90
2019-03-30T08:21:01.262Z,99.90
2019-03-30T08:23:40.287Z,99.90
2019-03-30T08:26:06.253Z,99.90
2019-03-30T08:28:37.088Z,99.90
2019-03-30T08:31:08.128Z,99.90
2019-03-30T08:33:39.070Z,99.90
2019-03-30T08:36:10.015Z,99.90
2019-03-30T08:38:40.811Z,99.90
2019-03-30T08:41:11.581Z,99.90
2019-03-30T08:43:43.784Z,99.90
2019-03-30T08:46:14.739Z,99.20
2019-03-30T08:48:46.603Z,99.90
2019-03-30T08:51:20.600Z,99.40
2019-03-30T08:53:54.675Z,99.90
2019-03-30T08:56:23.812Z,93.30
2019-03-30T08:58:54.552Z,99.40
2019-03-30T09:01:25.396Z,89.80
2019-03-30T09:03:56.328Z,93.20
2019-03-30T09:06:27.304Z,95.70
2019-03-30T09:08:58.273Z,87.40
2019-03-30T09:11:29.142Z,86.20
2019-03-30T09:14:01.340Z,90.20
2019-03-30T09:16:32.141Z,92.90
2019-03-30T09:19:02.980Z,92.30
2019-03-30T09:21:33.839Z,92.50
2019-03-30T09:24:09.897Z,89.50
2019-03-30T09:26:38.249Z,82.40
2019-03-30T09:29:09.121Z,92.50
2019-03-30T09:31:40.127Z,88.60
2019-03-30T09:34:10.992Z,83.60
2019-03-30T09:36:41.909Z,79.50
2019-03-30T09:39:12.854Z,75.00
2019-03-30T09:41:43.628Z,77.00
2019-03-30T09:44:15.970Z,83.50
2019-03-30T09:46:47.043Z,79.60
2019-03-30T09:49:17.787Z,90.40
2019-03-30T09:51:48.536Z,83.30
2019-03-30T09:54:23.917Z,89.60
2019-03-30T09:56:53.091Z,77.40
2019-03-30T09:59:23.859Z,76.30
2019-03-30T10:01:54.794Z,78.80
2019-03-30T10:04:25.624Z,64.60
2019-03-30T10:06:56.539Z,73.10
2019-03-30T10:09:27.370Z,72.60
2019-03-30T10:11:58.266Z,74.30
2019-03-30T10:14:29.142Z,70.00
2019-03-30T10:16:59.893Z,67.60
2019-03-30T10:19:30.763Z,68.00
2019-03-30T10:22:01.503Z,68.40
2019-03-30T10:24:38.463Z,69.60
2019-03-30T10:27:04.791Z,69.00
2019-03-30T10:29:35.784Z,62.50
2019-03-30T10:32:08.003Z,62.30
2019-03-30T10:34:39.789Z,68.80
2019-03-30T10:37:10.991Z,65.70
2019-03-30T10:39:41.931Z,68.40
2019-03-30T10:42:12.867Z,60.60
2019-03-30T10:44:43.676Z,68.40
2019-03-30T10:47:14.514Z,64.60
2019-03-30T10:49:45.451Z,65.40
2019-03-30T10:52:17.336Z,60.90
2019-03-30T10:54:52.852Z,63.00
2019-03-30T10:57:20.623Z,61.50
2019-03-30T10:59:52.577Z,61.90
2019-03-30T11:02:23.747Z,61.40
2019-03-30T11:04:54.623Z,61.50
2019-03-30T11:07:25.410Z,55.50
2019-03-30T11:09:57.244Z,63.00
2019-03-30T11:12:28.011Z,60.80
2019-03-30T11:14:58.819Z,61.50
2019-03-30T11:17:29.658Z,60.80
2019-03-30T11:20:00.386Z,57.60
2019-03-30T11:22:31.314Z,60.60
2019-03-30T11:25:08.032Z,57.00
2019-03-30T11:27:35.763Z,58.70
2019-03-30T11:30:07.459Z,53.70
2019-03-30T11:32:38.486Z,53.90
2019-03-30T11:35:09.444Z,57.80
2019-03-30T11:37:40.223Z,56.60
2019-03-30T11:40:11.096Z,56.50
2019-03-30T11:42:43.314Z,56.70
2019-03-30T11:45:14.100Z,57.50
2019-03-30T11:47:44.943Z,55.30
2019-03-30T11:50:17.346Z,55.80
2019-03-30T11:52:49.331Z,56.30
2019-03-30T11:55:22.204Z,56.80
2019-03-30T11:57:52.731Z,56.70
2019-03-30T12:00:23.816Z,56.90
2019-03-30T12:02:56.370Z,56.40
2019-03-30T12:05:27.271Z,57.00
2019-03-30T12:07:58.142Z,57.10
2019-03-30T12:10:29.930Z,55.80
2019-03-30T12:13:00.850Z,56.30
2019-03-30T12:15:31.868Z,56.60
2019-03-30T12:18:02.656Z,56.60
2019-03-30T12:20:33.575Z,56.40
2019-03-30T12:23:05.455Z,57.90
2019-03-30T12:25:36.473Z,57.30
2019-03-30T12:28:07.307Z,56.60
2019-03-30T12:30:38.060Z,57.70
2019-03-30T12:33:09.686Z,57.00
2019-03-30T12:35:40.925Z,54.20
2019-03-30T12:38:12.043Z,53.70
2019-03-30T12:40:43.659Z,55.00
2019-03-30T12:43:14.953Z,54.50
2019-03-30T12:45:46.331Z,55.90
2019-03-30T12:48:17.476Z,54.40
2019-03-30T12:50:50.181Z,53.60
2019-03-30T12:53:21.353Z,54.90
2019-03-30T12:55:53.431Z,54.30
2019-03-30T12:58:24.333Z,53.80
2019-03-30T13:00:55.830Z,56.20
2019-03-30T13:03:26.651Z,56.40
2019-03-30T13:05:57.829Z,49.60
2019-03-30T13:08:28.776Z,54.00
2019-03-30T13:11:01.177Z,54.20
2019-03-30T13:13:31.953Z,55.90
2019-03-30T13:16:02.716Z,55.60
2019-03-30T13:18:34.159Z,55.90
2019-03-30T13:21:06.453Z,56.00
2019-03-30T13:23:37.890Z,57.50
2019-03-30T13:26:08.994Z,57.60
2019-03-30T13:28:40.061Z,54.10
2019-03-30T13:31:11.409Z,55.50
2019-03-30T13:33:42.495Z,57.40
2019-03-30T13:36:14.627Z,56.40
2019-03-30T13:38:45.762Z,58.30
2019-03-30T13:41:17.110Z,57.40
2019-03-30T13:43:48.369Z,57.90
2019-03-30T13:46:20.596Z,59.60
2019-03-30T13:48:51.942Z,62.00
2019-03-30T13:51:24.441Z,58.90
2019-03-30T13:53:55.973Z,57.20
2019-03-30T13:56:27.646Z,57.30
2019-03-30T13:58:58.794Z,57.40
2019-03-30T14:01:29.603Z,55.80
2019-03-30T14:04:02.141Z,54.50
2019-03-30T14:06:34.167Z,56.00
2019-03-30T14:09:07.018Z,60.20
2019-03-30T14:11:38.703Z,62.20
2019-03-30T14:14:10.178Z,60.90
2019-03-30T14:16:41.730Z,57.30
2019-03-30T14:19:14.636Z,58.70
2019-03-30T14:21:47.520Z,55.10
2019-03-30T14:24:20.143Z,53.40
2019-03-30T14:26:51.760Z,56.30
2019-03-30T14:29:22.803Z,56.70
2019-03-30T14:31:55.812Z,58.90
2019-03-30T14:34:27.465Z,57.30
2019-03-30T14:37:02.780Z,57.90
2019-03-30T14:39:35.507Z,58.00
2019-03-30T14:42:06.852Z,57.70
2019-03-30T14:44:39.801Z,59.70
2019-03-30T14:47:13.941Z,56.00
2019-03-30T14:49:45.301Z,58.00
2019-03-30T14:52:17.522Z,58.30
2019-03-30T14:54:53.026Z,58.10
2019-03-30T14:57:22.903Z,59.70
2019-03-30T14:59:54.361Z,59.50
2019-03-30T15:02:27.875Z,59.40
2019-03-30T15:05:00.999Z,62.00
2019-03-30T15:07:33.412Z,60.00
2019-03-30T15:10:08.586Z,60.80
2019-03-30T15:12:43.973Z,59.40
2019-03-30T15:15:15.468Z,59.40
2019-03-30T15:17:47.449Z,61.50
2019-03-30T15:20:20.703Z,61.00
2019-03-30T15:22:54.934Z,62.00
2019-03-30T15:25:25.722Z,63.90
2019-03-30T15:27:57.309Z,63.70
2019-03-30T15:30:28.362Z,63.70
2019-03-30T15:33:03.440Z,63.00
2019-03-30T15:35:33.484Z,66.40
2019-03-30T15:38:04.352Z,67.50
2019-03-30T15:40:35.495Z,67.30
2019-03-30T15:43:06.752Z,68.70
2019-03-30T15:45:37.885Z,68.20
2019-03-30T15:48:09.466Z,72.40
2019-03-30T15:50:40.477Z,74.40
2019-03-30T15:53:11.595Z,79.60
2019-03-30T15:55:43.082Z,82.30
2019-03-30T15:58:14.285Z,85.20
2019-03-30T16:00:45.589Z,89.90
2019-03-30T16:03:17.555Z,92.90
2019-03-30T16:05:48.662Z,93.00
2019-03-30T16:08:19.965Z,99.10
2019-03-30T16:10:52.533Z,99.90
2019-03-30T16:13:23.628Z,99.90
2019-03-30T16:15:55.984Z,99.90
2019-03-30T16:18:27.424Z,99.90
2019-03-30T16:20:58.542Z,99.90
2019-03-30T16:23:29.726Z,99.90
2019-03-30T16:26:02.246Z,99.90
2019-03-30T16:28:33.507Z,99.90
2019-03-30T16:31:04.705Z,99.90
2019-03-30T16:33:36.026Z,99.90
2019-03-30T16:36:07.247Z,99.90
2019-03-30T16:38:38.342Z,99.90
2019-03-30T16:41:11.115Z,99.90
2019-03-30T16:43:42.543Z,99.90
2019-03-30T16:46:14.746Z,99.90
2019-03-30T16:48:46.058Z,99.90
2019-03-30T16:51:18.319Z,99.90
2019-03-30T16:53:49.152Z,99.90
2019-03-30T16:56:20.632Z,99.90
2019-03-30T16:58:51.609Z,99.90
2019-03-30T17:01:24.534Z,99.90
2019-03-30T17:03:56.531Z,99.90
2019-03-30T17:06:28.307Z,99.90
2019-03-30T17:08:59.725Z,99.90
2019-03-30T17:11:34.695Z,99.90
2019-03-30T17:14:07.915Z,99.90
2019-03-30T17:16:41.380Z,99.90
2019-03-30T17:19:14.638Z,99.90
2019-03-30T17:21:48.734Z,99.90
2019-03-30T17:24:19.630Z,99.90
2019-03-30T17:26:50.802Z,99.90
2019-03-30T17:29:24.504Z,99.90
2019-03-30T17:31:58.657Z,99.90
2019-03-30T17:34:31.055Z,99.90
2019-03-30T17:37:03.221Z,99.90
2019-03-30T17:39:34.841Z,99.90
2019-03-30T17:42:09.367Z,99.90
2019-03-30T17:44:41.608Z,99.90
2019-03-30T17:47:14.482Z,99.90
2019-03-30T17:49:48.519Z,99.90
2019-03-30T17:52:21.828Z,99.90
2019-03-30T17:54:53.220Z,99.90
2019-03-30T17:57:24.507Z,99.90
2019-03-30T17:59:55.754Z,99.90
2019-03-30T18:02:26.999Z,99.90
2019-03-30T18:04:58.961Z,99.90
2019-03-30T18:07:30.309Z,99.90
2019-03-30T18:10:03.482Z,99.90
2019-03-30T18:12:35.017Z,99.90
2019-03-30T18:15:07.521Z,99.90
2019-03-30T18:17:38.275Z,99.90
2019-03-30T18:20:09.402Z,99.90
2019-03-30T18:22:41.581Z,99.90
2019-03-30T18:25:12.324Z,99.90
2019-03-30T18:27:43.319Z,99.90
2019-03-30T18:30:14.889Z,99.90
2019-03-30T18:32:46.137Z,99.90
2019-03-30T18:35:17.076Z,99.90
2019-03-30T18:37:48.208Z,99.90
2019-03-30T18:40:24.767Z,99.90
2019-03-30T18:42:55.801Z,99.90
2019-03-30T18:45:28.856Z,99.90
2019-03-30T18:48:14.398Z,99.90
2019-03-30T18:50:46.152Z,99.90
2019-03-30T18:53:17.704Z,99.90
2019-03-30T18:55:49.259Z,99.90
2019-03-30T18:58:22.242Z,99.90
2019-03-30T19:00:54.778Z,99.90
2019-03-30T19:03:30.551Z,99.90
2019-03-30T19:06:03.870Z,99.90
2019-03-30T19:08:36.384Z,99.90
2019-03-30T19:11:09.155Z,99.90
2019-03-30T19:13:42.338Z,99.90
2019-03-30T19:16:16.799Z,99.90
2019-03-30T19:18:48.330Z,99.90
2019-03-30T19:21:19.512Z,99.90
2019-03-30T19:23:50.878Z,99.90
2019-03-30T19:26:22.498Z,99.90
2019-03-30T19:28:56.482Z,99.90
2019-03-30T19:31:31.061Z,99.90
2019-03-30T19:34:03.488Z,99.90
2019-03-30T19:36:36.155Z,99.90
2019-03-30T19:39:09.971Z,99.90
2019-03-30T19:41:42.733Z,99.90
2019-03-30T19:44:14.724Z,99.90
2019-03-30T19:46:48.668Z,99.90
2019-03-30T19:49:20.587Z,99.90
2019-03-30T19:51:57.645Z,99.90
2019-03-30T19:54:31.838Z,99.90
2019-03-30T19:57:07.568Z,99.90
2019-03-30T19:59:39.120Z,99.90
2019-03-30T20:02:12.043Z,99.90
2019-03-30T20:04:44.330Z,99.90
2019-03-30T20:07:17.364Z,99.90
2019-03-30T20:09:51.349Z,99.90
2019-03-30T20:12:24.420Z,99.90
2019-03-30T20:14:59.046Z,99.90
2019-03-30T20:17:34.775Z,99.90
2019-03-30T20:20:07.963Z,99.90
2019-03-30T20:22:39.189Z,99.90
2019-03-30T20:25:12.194Z,99.90
2019-03-30T20:27:45.835Z,99.90
2019-03-30T20:30:19.171Z,99.90
2019-03-30T20:32:53.304Z,99.90
2019-03-30T20:35:25.173Z,99.90
2019-03-30T20:37:59.571Z,99.90
2019-03-30T20:40:31.233Z,99.90
2019-03-30T20:43:05.788Z,99.90
2019-03-30T20:45:38.115Z,99.90
2019-03-30T20:48:09.629Z,99.90
2019-03-30T20:50:41.603Z,99.90
2019-03-30T20:53:15.217Z,99.90
2019-03-30T20:55:46.923Z,99.90
2019-03-30T20:58:18.413Z,99.90
2019-03-30T21:00:50.052Z,99.90
2019-03-30T21:03:22.518Z,99.90
2019-03-30T21:05:53.450Z,99.90
2019-03-30T21:08:24.409Z,99.90
2019-03-30T21:10:56.064Z,99.90
2019-03-30T21:13:29.129Z,99.90
2019-03-30T21:16:02.137Z,99.90
2019-03-30T21:18:34.361Z,99.90
2019-03-30T21:21:08.992Z,99.90
2019-03-30T21:23:40.735Z,99.90
2019-03-30T21:26:13.365Z,99.90
2019-03-30T21:28:46.288Z,99.90
2019-03-30T21:31:19.661Z,99.90
2019-03-30T21:33:53.161Z,99.90
2019-03-30T21:36:26.037Z,99.90
2019-03-30T21:38:59.417Z,99.90
2019-03-30T21:41:31.079Z,99.90
2019-03-30T21:44:15.842Z,99.90
2019-03-30T21:46:39.573Z,99.90
2019-03-30T21:49:14.637Z,99.90
2019-03-30T21:51:46.086Z,99.90
2019-03-30T21:54:20.892Z,99.90
2019-03-30T21:56:52.415Z,99.90
2019-03-30T21:59:26.028Z,99.90
2019-03-30T22:01:57.144Z,99.90
2019-03-30T22:04:29.587Z,99.90
2019-03-30T22:07:00.503Z,99.90
2019-03-30T22:09:31.563Z,99.90
2019-03-30T22:12:02.475Z,99.90
2019-03-30T22:14:34.744Z,99.90
2019-03-30T22:17:05.659Z,99.90
2019-03-30T22:19:36.512Z,99.90
2019-03-30T22:22:07.417Z,99.90
2019-03-30T22:24:38.221Z,99.90
2019-03-30T22:27:08.888Z,99.90
2019-03-30T22:29:39.665Z,99.90
2019-03-30T22:32:10.581Z,99.90
2019-03-30T22:34:41.434Z,99.90
2019-03-30T22:37:12.284Z,99.90
2019-03-30T22:39:43.018Z,99.90
2019-03-30T22:42:13.823Z,99.90
2019-03-30T22:44:45.816Z,99.90
2019-03-30T22:47:16.754Z,99.90
2019-03-30T22:49:47.648Z,99.90
2019-03-30T22:52:20.371Z,99.90
2019-03-30T22:54:50.974Z,99.90
2019-03-30T22:57:21.835Z,99.90
2019-03-30T22:59:52.738Z,99.90
2019-03-30T23:02:23.612Z,99.90
2019-03-30T23:04:54.675Z,99.90
2019-03-30T23:07:25.448Z,99.90
2019-03-30T23:09:56.305Z,99.90
2019-03-30T23:12:27.122Z,99.90
2019-03-30T23:15:00.615Z,99.90
2019-03-30T23:17:31.472Z,99.90
2019-03-30T23:20:02.379Z,99.90
2019-03-30T23:22:33.227Z,99.90
2019-03-30T23:25:07.068Z,99.90
2019-03-30T23:27:37.923Z,99.90
2019-03-30T23:30:09.264Z,99.90
2019-03-30T23:32:40.084Z,99.90
2019-03-30T23:35:11.918Z,99.90
2019-03-30T23:37:42.750Z,99.90
2019-03-30T23:40:13.610Z,99.90
2019-03-30T23:42:44.523Z,99.90
2019-03-30T23:45:15.488Z,99.90
2019-03-30T23:47:46.296Z,99.90
2019-03-30T23:50:17.260Z,99.90
2019-03-30T23:52:48.199Z,99.90
2019-03-30T23:55:20.227Z,99.90
2019-03-30T23:57:51.199Z,99.90
